<?xml version="1.0" encoding="UTF-8" standalone="no" ?>
<gpx xmlns="http://www.topografix.com/GPX/1/1" xmlns:xsi="http://www.w3.org/2001/XMLSchema-instance" xsi:schemaLocation="http://www.topografix.com/GPX/1/1 http://www.topografix.com/GPX/1/1/gpx.xsd" version="1.1" creator="VisuGPX - https://www.visugpx.com">
  <metadata>
    <name>Marche Dordogne 2026</name>
  </metadata>
  <trk>
    <name><![CDATA[Trace 1783323914480]]></name>
    <trkseg>
      <trkpt lat="45.45802" lon="0.92794">
        <ele>315.6</ele>
        <time>2026-07-06T07:45:14.480Z</time>
      </trkpt>
      <trkpt lat="45.45814" lon="0.9279">
        <ele>317.7</ele>
        <time>2026-07-06T07:45:25.000Z</time>
      </trkpt>
      <trkpt lat="45.45822" lon="0.92785">
        <ele>316.7</ele>
        <time>2026-07-06T07:45:35.000Z</time>
      </trkpt>
      <trkpt lat="45.45826" lon="0.92772">
        <ele>321.7</ele>
        <time>2026-07-06T07:45:45.000Z</time>
      </trkpt>
      <trkpt lat="45.45844" lon="0.92762">
        <ele>323.1</ele>
        <time>2026-07-06T07:45:55.000Z</time>
      </trkpt>
      <trkpt lat="45.45856" lon="0.92747">
        <ele>319.2</ele>
        <time>2026-07-06T07:46:05.000Z</time>
      </trkpt>
      <trkpt lat="45.45864" lon="0.92738">
        <ele>314.7</ele>
        <time>2026-07-06T07:46:15.000Z</time>
      </trkpt>
      <trkpt lat="45.45862" lon="0.92718">
        <ele>313.1</ele>
        <time>2026-07-06T07:46:25.000Z</time>
      </trkpt>
      <trkpt lat="45.45863" lon="0.92698">
        <ele>309.7</ele>
        <time>2026-07-06T07:46:35.000Z</time>
      </trkpt>
      <trkpt lat="45.45863" lon="0.9269">
        <ele>308.2</ele>
        <time>2026-07-06T07:46:45.000Z</time>
      </trkpt>
      <trkpt lat="45.45862" lon="0.92675">
        <ele>308.6</ele>
        <time>2026-07-06T07:46:55.000Z</time>
      </trkpt>
      <trkpt lat="45.45865" lon="0.92661">
        <ele>308.1</ele>
        <time>2026-07-06T07:47:05.000Z</time>
      </trkpt>
      <trkpt lat="45.45871" lon="0.92647">
        <ele>305.6</ele>
        <time>2026-07-06T07:47:15.000Z</time>
      </trkpt>
      <trkpt lat="45.45879" lon="0.92638">
        <ele>303</ele>
        <time>2026-07-06T07:47:25.000Z</time>
      </trkpt>
      <trkpt lat="45.45886" lon="0.92629">
        <ele>300.4</ele>
        <time>2026-07-06T07:47:35.000Z</time>
      </trkpt>
      <trkpt lat="45.45896" lon="0.92615">
        <ele>294.6</ele>
        <time>2026-07-06T07:47:45.000Z</time>
      </trkpt>
      <trkpt lat="45.45905" lon="0.92608">
        <ele>290</ele>
        <time>2026-07-06T07:47:55.000Z</time>
      </trkpt>
      <trkpt lat="45.45918" lon="0.92606">
        <ele>287.1</ele>
        <time>2026-07-06T07:48:05.000Z</time>
      </trkpt>
      <trkpt lat="45.45929" lon="0.92602">
        <ele>286.4</ele>
        <time>2026-07-06T07:48:15.000Z</time>
      </trkpt>
      <trkpt lat="45.4594" lon="0.926">
        <ele>288.2</ele>
        <time>2026-07-06T07:48:25.000Z</time>
      </trkpt>
      <trkpt lat="45.45948" lon="0.92597">
        <ele>291</ele>
        <time>2026-07-06T07:48:35.000Z</time>
      </trkpt>
      <trkpt lat="45.45959" lon="0.92592">
        <ele>291.9</ele>
        <time>2026-07-06T07:48:45.000Z</time>
      </trkpt>
      <trkpt lat="45.4597" lon="0.92589">
        <ele>292.8</ele>
        <time>2026-07-06T07:48:55.000Z</time>
      </trkpt>
      <trkpt lat="45.45978" lon="0.92586">
        <ele>294.4</ele>
        <time>2026-07-06T07:49:05.000Z</time>
      </trkpt>
      <trkpt lat="45.45989" lon="0.92585">
        <ele>295.4</ele>
        <time>2026-07-06T07:49:15.000Z</time>
      </trkpt>
      <trkpt lat="45.46001" lon="0.92582">
        <ele>295.8</ele>
        <time>2026-07-06T07:49:25.000Z</time>
      </trkpt>
      <trkpt lat="45.46012" lon="0.92575">
        <ele>294.9</ele>
        <time>2026-07-06T07:49:35.000Z</time>
      </trkpt>
      <trkpt lat="45.4602" lon="0.92569">
        <ele>294.4</ele>
        <time>2026-07-06T07:49:45.000Z</time>
      </trkpt>
      <trkpt lat="45.46027" lon="0.92558">
        <ele>294.4</ele>
        <time>2026-07-06T07:49:55.000Z</time>
      </trkpt>
      <trkpt lat="45.46036" lon="0.92551">
        <ele>293.7</ele>
        <time>2026-07-06T07:50:05.000Z</time>
      </trkpt>
      <trkpt lat="45.46041" lon="0.92537">
        <ele>294.2</ele>
        <time>2026-07-06T07:50:15.000Z</time>
      </trkpt>
      <trkpt lat="45.46042" lon="0.92524">
        <ele>296</ele>
        <time>2026-07-06T07:50:25.000Z</time>
      </trkpt>
      <trkpt lat="45.46043" lon="0.92508">
        <ele>296.1</ele>
        <time>2026-07-06T07:50:35.000Z</time>
      </trkpt>
      <trkpt lat="45.46045" lon="0.9249">
        <ele>293.6</ele>
        <time>2026-07-06T07:50:45.000Z</time>
      </trkpt>
      <trkpt lat="45.46046" lon="0.92474">
        <ele>292.4</ele>
        <time>2026-07-06T07:50:55.000Z</time>
      </trkpt>
      <trkpt lat="45.46045" lon="0.92459">
        <ele>292</ele>
        <time>2026-07-06T07:51:05.000Z</time>
      </trkpt>
      <trkpt lat="45.46043" lon="0.92445">
        <ele>292.5</ele>
        <time>2026-07-06T07:51:15.000Z</time>
      </trkpt>
      <trkpt lat="45.46046" lon="0.92434">
        <ele>292.5</ele>
        <time>2026-07-06T07:51:25.000Z</time>
      </trkpt>
      <trkpt lat="45.46046" lon="0.92424">
        <ele>298</ele>
        <time>2026-07-06T07:51:35.000Z</time>
      </trkpt>
      <trkpt lat="45.46042" lon="0.9241">
        <ele>302.7</ele>
        <time>2026-07-06T07:51:45.000Z</time>
      </trkpt>
      <trkpt lat="45.46034" lon="0.92393">
        <ele>302.9</ele>
        <time>2026-07-06T07:51:55.000Z</time>
      </trkpt>
      <trkpt lat="45.4603" lon="0.9238">
        <ele>302.7</ele>
        <time>2026-07-06T07:52:05.000Z</time>
      </trkpt>
      <trkpt lat="45.46024" lon="0.92367">
        <ele>301.5</ele>
        <time>2026-07-06T07:52:15.000Z</time>
      </trkpt>
      <trkpt lat="45.4602" lon="0.92351">
        <ele>299.2</ele>
        <time>2026-07-06T07:52:25.000Z</time>
      </trkpt>
      <trkpt lat="45.46015" lon="0.92336">
        <ele>296.9</ele>
        <time>2026-07-06T07:52:35.000Z</time>
      </trkpt>
      <trkpt lat="45.46014" lon="0.92325">
        <ele>294</ele>
        <time>2026-07-06T07:52:45.000Z</time>
      </trkpt>
      <trkpt lat="45.46015" lon="0.92307">
        <ele>291.4</ele>
        <time>2026-07-06T07:52:55.000Z</time>
      </trkpt>
      <trkpt lat="45.46015" lon="0.92291">
        <ele>289.4</ele>
        <time>2026-07-06T07:53:05.000Z</time>
      </trkpt>
      <trkpt lat="45.46016" lon="0.92275">
        <ele>286.7</ele>
        <time>2026-07-06T07:53:15.000Z</time>
      </trkpt>
      <trkpt lat="45.46016" lon="0.92273">
        <ele>283.2</ele>
        <time>2026-07-06T07:53:25.000Z</time>
      </trkpt>
      <trkpt lat="45.46014" lon="0.92263">
        <ele>280.8</ele>
        <time>2026-07-06T07:53:35.000Z</time>
      </trkpt>
      <trkpt lat="45.46012" lon="0.92253">
        <ele>280.9</ele>
        <time>2026-07-06T07:53:45.000Z</time>
      </trkpt>
      <trkpt lat="45.4601" lon="0.92242">
        <ele>281.4</ele>
        <time>2026-07-06T07:53:55.000Z</time>
      </trkpt>
      <trkpt lat="45.46007" lon="0.92227">
        <ele>282.4</ele>
        <time>2026-07-06T07:54:05.000Z</time>
      </trkpt>
      <trkpt lat="45.46004" lon="0.9221">
        <ele>283.5</ele>
        <time>2026-07-06T07:54:15.000Z</time>
      </trkpt>
      <trkpt lat="45.45997" lon="0.92195">
        <ele>283.5</ele>
        <time>2026-07-06T07:54:25.000Z</time>
      </trkpt>
      <trkpt lat="45.45992" lon="0.92183">
        <ele>281.4</ele>
        <time>2026-07-06T07:54:35.000Z</time>
      </trkpt>
      <trkpt lat="45.45987" lon="0.92173">
        <ele>281.4</ele>
        <time>2026-07-06T07:54:45.000Z</time>
      </trkpt>
      <trkpt lat="45.45988" lon="0.9216">
        <ele>281</ele>
        <time>2026-07-06T07:54:55.000Z</time>
      </trkpt>
      <trkpt lat="45.4598" lon="0.9215">
        <ele>281.2</ele>
        <time>2026-07-06T07:55:05.000Z</time>
      </trkpt>
      <trkpt lat="45.45971" lon="0.9214">
        <ele>276.8</ele>
        <time>2026-07-06T07:55:15.000Z</time>
      </trkpt>
      <trkpt lat="45.45963" lon="0.9213">
        <ele>273.9</ele>
        <time>2026-07-06T07:55:25.000Z</time>
      </trkpt>
      <trkpt lat="45.45954" lon="0.92123">
        <ele>274.5</ele>
        <time>2026-07-06T07:55:35.000Z</time>
      </trkpt>
      <trkpt lat="45.45945" lon="0.92117">
        <ele>275.6</ele>
        <time>2026-07-06T07:55:45.000Z</time>
      </trkpt>
      <trkpt lat="45.45935" lon="0.9211">
        <ele>277.6</ele>
        <time>2026-07-06T07:55:55.000Z</time>
      </trkpt>
      <trkpt lat="45.45927" lon="0.92108">
        <ele>279.3</ele>
        <time>2026-07-06T07:56:05.000Z</time>
      </trkpt>
      <trkpt lat="45.45921" lon="0.92103">
        <ele>281.6</ele>
        <time>2026-07-06T07:56:15.000Z</time>
      </trkpt>
      <trkpt lat="45.45915" lon="0.92095">
        <ele>284.2</ele>
        <time>2026-07-06T07:56:25.000Z</time>
      </trkpt>
      <trkpt lat="45.45913" lon="0.9209">
        <ele>284.5</ele>
        <time>2026-07-06T07:56:35.000Z</time>
      </trkpt>
      <trkpt lat="45.45907" lon="0.92079">
        <ele>282.3</ele>
        <time>2026-07-06T07:56:45.000Z</time>
      </trkpt>
      <trkpt lat="45.45904" lon="0.92064">
        <ele>281.9</ele>
        <time>2026-07-06T07:56:55.000Z</time>
      </trkpt>
      <trkpt lat="45.45904" lon="0.92049">
        <ele>280.3</ele>
        <time>2026-07-06T07:57:05.000Z</time>
      </trkpt>
      <trkpt lat="45.45898" lon="0.92034">
        <ele>278.7</ele>
        <time>2026-07-06T07:57:15.000Z</time>
      </trkpt>
      <trkpt lat="45.45902" lon="0.92029">
        <ele>279.3</ele>
        <time>2026-07-06T07:57:25.000Z</time>
      </trkpt>
      <trkpt lat="45.45902" lon="0.92029">
        <ele>279.3</ele>
        <time>2026-07-06T07:57:35.000Z</time>
      </trkpt>
      <trkpt lat="45.45901" lon="0.92021">
        <ele>279.1</ele>
        <time>2026-07-06T07:57:45.000Z</time>
      </trkpt>
      <trkpt lat="45.45895" lon="0.92017">
        <ele>278</ele>
        <time>2026-07-06T07:57:55.000Z</time>
      </trkpt>
      <trkpt lat="45.45893" lon="0.92">
        <ele>277.2</ele>
        <time>2026-07-06T07:58:05.000Z</time>
      </trkpt>
      <trkpt lat="45.45889" lon="0.9199">
        <ele>276.8</ele>
        <time>2026-07-06T07:58:15.000Z</time>
      </trkpt>
      <trkpt lat="45.45878" lon="0.91985">
        <ele>275.7</ele>
        <time>2026-07-06T07:58:25.000Z</time>
      </trkpt>
      <trkpt lat="45.45862" lon="0.91982">
        <ele>274.1</ele>
        <time>2026-07-06T07:58:35.000Z</time>
      </trkpt>
      <trkpt lat="45.45853" lon="0.9198">
        <ele>272.7</ele>
        <time>2026-07-06T07:58:45.000Z</time>
      </trkpt>
      <trkpt lat="45.45846" lon="0.91968">
        <ele>270.4</ele>
        <time>2026-07-06T07:58:55.000Z</time>
      </trkpt>
      <trkpt lat="45.45837" lon="0.91958">
        <ele>268.5</ele>
        <time>2026-07-06T07:59:05.000Z</time>
      </trkpt>
      <trkpt lat="45.45832" lon="0.91945">
        <ele>268.8</ele>
        <time>2026-07-06T07:59:15.000Z</time>
      </trkpt>
      <trkpt lat="45.45831" lon="0.91934">
        <ele>270.1</ele>
        <time>2026-07-06T07:59:25.000Z</time>
      </trkpt>
      <trkpt lat="45.45827" lon="0.91922">
        <ele>270.6</ele>
        <time>2026-07-06T07:59:35.000Z</time>
      </trkpt>
      <trkpt lat="45.45828" lon="0.91908">
        <ele>270.2</ele>
        <time>2026-07-06T07:59:45.000Z</time>
      </trkpt>
      <trkpt lat="45.4583" lon="0.91888">
        <ele>269.8</ele>
        <time>2026-07-06T07:59:55.000Z</time>
      </trkpt>
      <trkpt lat="45.4583" lon="0.91875">
        <ele>268.2</ele>
        <time>2026-07-06T08:00:05.000Z</time>
      </trkpt>
      <trkpt lat="45.45831" lon="0.91865">
        <ele>267.2</ele>
        <time>2026-07-06T08:00:15.000Z</time>
      </trkpt>
      <trkpt lat="45.45837" lon="0.91846">
        <ele>264</ele>
        <time>2026-07-06T08:00:25.000Z</time>
      </trkpt>
      <trkpt lat="45.45841" lon="0.91829">
        <ele>263.1</ele>
        <time>2026-07-06T08:00:35.000Z</time>
      </trkpt>
      <trkpt lat="45.45841" lon="0.91818">
        <ele>262.7</ele>
        <time>2026-07-06T08:00:45.000Z</time>
      </trkpt>
      <trkpt lat="45.4584" lon="0.91801">
        <ele>263.5</ele>
        <time>2026-07-06T08:00:55.000Z</time>
      </trkpt>
      <trkpt lat="45.45838" lon="0.91786">
        <ele>265.5</ele>
        <time>2026-07-06T08:01:05.000Z</time>
      </trkpt>
      <trkpt lat="45.4584" lon="0.9177">
        <ele>268.7</ele>
        <time>2026-07-06T08:01:15.000Z</time>
      </trkpt>
      <trkpt lat="45.45841" lon="0.91752">
        <ele>271.2</ele>
        <time>2026-07-06T08:01:25.000Z</time>
      </trkpt>
      <trkpt lat="45.4584" lon="0.9174">
        <ele>273.6</ele>
        <time>2026-07-06T08:01:35.000Z</time>
      </trkpt>
      <trkpt lat="45.45837" lon="0.91726">
        <ele>276.3</ele>
        <time>2026-07-06T08:01:45.000Z</time>
      </trkpt>
      <trkpt lat="45.45833" lon="0.91711">
        <ele>279.2</ele>
        <time>2026-07-06T08:01:55.000Z</time>
      </trkpt>
      <trkpt lat="45.45827" lon="0.91698">
        <ele>285.1</ele>
        <time>2026-07-06T08:02:05.000Z</time>
      </trkpt>
      <trkpt lat="45.4582" lon="0.91682">
        <ele>284.4</ele>
        <time>2026-07-06T08:02:15.000Z</time>
      </trkpt>
      <trkpt lat="45.45815" lon="0.91665">
        <ele>286.2</ele>
        <time>2026-07-06T08:02:25.000Z</time>
      </trkpt>
      <trkpt lat="45.45813" lon="0.91654">
        <ele>289.1</ele>
        <time>2026-07-06T08:02:35.000Z</time>
      </trkpt>
      <trkpt lat="45.45809" lon="0.91639">
        <ele>289.6</ele>
        <time>2026-07-06T08:02:45.000Z</time>
      </trkpt>
      <trkpt lat="45.45804" lon="0.91626">
        <ele>290.1</ele>
        <time>2026-07-06T08:02:55.000Z</time>
      </trkpt>
      <trkpt lat="45.45803" lon="0.91612">
        <ele>291.6</ele>
        <time>2026-07-06T08:03:05.000Z</time>
      </trkpt>
      <trkpt lat="45.45804" lon="0.91599">
        <ele>294</ele>
        <time>2026-07-06T08:03:15.000Z</time>
      </trkpt>
      <trkpt lat="45.45802" lon="0.9159">
        <ele>295.6</ele>
        <time>2026-07-06T08:03:25.000Z</time>
      </trkpt>
      <trkpt lat="45.45801" lon="0.91577">
        <ele>295.1</ele>
        <time>2026-07-06T08:03:35.000Z</time>
      </trkpt>
      <trkpt lat="45.45803" lon="0.91568">
        <ele>295.7</ele>
        <time>2026-07-06T08:03:45.000Z</time>
      </trkpt>
      <trkpt lat="45.45805" lon="0.91553">
        <ele>295.1</ele>
        <time>2026-07-06T08:03:55.000Z</time>
      </trkpt>
      <trkpt lat="45.45806" lon="0.91538">
        <ele>294.8</ele>
        <time>2026-07-06T08:04:05.000Z</time>
      </trkpt>
      <trkpt lat="45.45806" lon="0.91524">
        <ele>295.5</ele>
        <time>2026-07-06T08:04:15.000Z</time>
      </trkpt>
      <trkpt lat="45.45808" lon="0.91512">
        <ele>295.5</ele>
        <time>2026-07-06T08:04:25.000Z</time>
      </trkpt>
      <trkpt lat="45.45811" lon="0.91499">
        <ele>295.2</ele>
        <time>2026-07-06T08:04:35.000Z</time>
      </trkpt>
      <trkpt lat="45.45812" lon="0.91487">
        <ele>295.6</ele>
        <time>2026-07-06T08:04:45.000Z</time>
      </trkpt>
      <trkpt lat="45.45821" lon="0.91472">
        <ele>298.3</ele>
        <time>2026-07-06T08:04:55.000Z</time>
      </trkpt>
      <trkpt lat="45.4583" lon="0.91461">
        <ele>301.9</ele>
        <time>2026-07-06T08:05:05.000Z</time>
      </trkpt>
      <trkpt lat="45.45834" lon="0.91455">
        <ele>301.7</ele>
        <time>2026-07-06T08:05:15.000Z</time>
      </trkpt>
      <trkpt lat="45.45818" lon="0.9144">
        <ele>302.1</ele>
        <time>2026-07-06T08:05:25.000Z</time>
      </trkpt>
      <trkpt lat="45.45837" lon="0.91437">
        <ele>308.1</ele>
        <time>2026-07-06T08:05:35.000Z</time>
      </trkpt>
      <trkpt lat="45.45844" lon="0.91434">
        <ele>306.7</ele>
        <time>2026-07-06T08:05:45.000Z</time>
      </trkpt>
      <trkpt lat="45.45858" lon="0.91436">
        <ele>299.9</ele>
        <time>2026-07-06T08:05:55.000Z</time>
      </trkpt>
      <trkpt lat="45.45858" lon="0.91436">
        <ele>299.9</ele>
        <time>2026-07-06T08:06:05.000Z</time>
      </trkpt>
      <trkpt lat="45.45873" lon="0.91441">
        <ele>298.3</ele>
        <time>2026-07-06T08:06:15.000Z</time>
      </trkpt>
      <trkpt lat="45.45883" lon="0.91437">
        <ele>298.6</ele>
        <time>2026-07-06T08:06:25.000Z</time>
      </trkpt>
      <trkpt lat="45.45892" lon="0.91434">
        <ele>300.8</ele>
        <time>2026-07-06T08:06:35.000Z</time>
      </trkpt>
      <trkpt lat="45.45903" lon="0.91433">
        <ele>298.9</ele>
        <time>2026-07-06T08:06:45.000Z</time>
      </trkpt>
      <trkpt lat="45.45915" lon="0.91432">
        <ele>298.6</ele>
        <time>2026-07-06T08:06:55.000Z</time>
      </trkpt>
      <trkpt lat="45.45925" lon="0.91427">
        <ele>298.1</ele>
        <time>2026-07-06T08:07:05.000Z</time>
      </trkpt>
      <trkpt lat="45.45935" lon="0.91419">
        <ele>297.6</ele>
        <time>2026-07-06T08:07:15.000Z</time>
      </trkpt>
      <trkpt lat="45.45945" lon="0.9141">
        <ele>296.3</ele>
        <time>2026-07-06T08:07:25.000Z</time>
      </trkpt>
      <trkpt lat="45.45954" lon="0.91401">
        <ele>296.7</ele>
        <time>2026-07-06T08:07:35.000Z</time>
      </trkpt>
      <trkpt lat="45.45962" lon="0.91391">
        <ele>296.4</ele>
        <time>2026-07-06T08:07:45.000Z</time>
      </trkpt>
      <trkpt lat="45.45969" lon="0.91379">
        <ele>296.3</ele>
        <time>2026-07-06T08:07:55.000Z</time>
      </trkpt>
      <trkpt lat="45.45977" lon="0.91371">
        <ele>293.5</ele>
        <time>2026-07-06T08:08:05.000Z</time>
      </trkpt>
      <trkpt lat="45.45987" lon="0.9136">
        <ele>292</ele>
        <time>2026-07-06T08:08:15.000Z</time>
      </trkpt>
      <trkpt lat="45.45988" lon="0.91344">
        <ele>292.9</ele>
        <time>2026-07-06T08:08:25.000Z</time>
      </trkpt>
      <trkpt lat="45.45993" lon="0.9133">
        <ele>294</ele>
        <time>2026-07-06T08:08:35.000Z</time>
      </trkpt>
      <trkpt lat="45.45999" lon="0.91319">
        <ele>294.7</ele>
        <time>2026-07-06T08:08:45.000Z</time>
      </trkpt>
      <trkpt lat="45.46006" lon="0.91304">
        <ele>296.5</ele>
        <time>2026-07-06T08:08:55.000Z</time>
      </trkpt>
      <trkpt lat="45.46011" lon="0.91291">
        <ele>298.8</ele>
        <time>2026-07-06T08:09:05.000Z</time>
      </trkpt>
      <trkpt lat="45.4602" lon="0.91279">
        <ele>300.1</ele>
        <time>2026-07-06T08:09:15.000Z</time>
      </trkpt>
      <trkpt lat="45.46023" lon="0.91266">
        <ele>300.9</ele>
        <time>2026-07-06T08:09:25.000Z</time>
      </trkpt>
      <trkpt lat="45.46029" lon="0.91256">
        <ele>302.5</ele>
        <time>2026-07-06T08:09:35.000Z</time>
      </trkpt>
      <trkpt lat="45.46032" lon="0.91244">
        <ele>303</ele>
        <time>2026-07-06T08:09:45.000Z</time>
      </trkpt>
      <trkpt lat="45.46027" lon="0.91236">
        <ele>303.8</ele>
        <time>2026-07-06T08:09:55.000Z</time>
      </trkpt>
      <trkpt lat="45.46027" lon="0.91236">
        <ele>303.8</ele>
        <time>2026-07-06T08:10:05.000Z</time>
      </trkpt>
      <trkpt lat="45.46022" lon="0.91218">
        <ele>302.4</ele>
        <time>2026-07-06T08:10:15.000Z</time>
      </trkpt>
      <trkpt lat="45.46017" lon="0.91201">
        <ele>301.3</ele>
        <time>2026-07-06T08:10:25.000Z</time>
      </trkpt>
      <trkpt lat="45.46012" lon="0.91188">
        <ele>300.4</ele>
        <time>2026-07-06T08:10:35.000Z</time>
      </trkpt>
      <trkpt lat="45.46008" lon="0.91175">
        <ele>297</ele>
        <time>2026-07-06T08:10:45.000Z</time>
      </trkpt>
      <trkpt lat="45.46005" lon="0.91161">
        <ele>297.3</ele>
        <time>2026-07-06T08:10:55.000Z</time>
      </trkpt>
      <trkpt lat="45.45999" lon="0.9115">
        <ele>299</ele>
        <time>2026-07-06T08:11:05.000Z</time>
      </trkpt>
      <trkpt lat="45.4599" lon="0.91137">
        <ele>299.8</ele>
        <time>2026-07-06T08:11:15.000Z</time>
      </trkpt>
      <trkpt lat="45.45979" lon="0.91134">
        <ele>299.4</ele>
        <time>2026-07-06T08:11:25.000Z</time>
      </trkpt>
      <trkpt lat="45.45972" lon="0.91124">
        <ele>299.5</ele>
        <time>2026-07-06T08:11:35.000Z</time>
      </trkpt>
      <trkpt lat="45.45964" lon="0.91114">
        <ele>300.5</ele>
        <time>2026-07-06T08:11:45.000Z</time>
      </trkpt>
      <trkpt lat="45.45957" lon="0.911">
        <ele>300.5</ele>
        <time>2026-07-06T08:11:55.000Z</time>
      </trkpt>
      <trkpt lat="45.45952" lon="0.91091">
        <ele>301.5</ele>
        <time>2026-07-06T08:12:05.000Z</time>
      </trkpt>
      <trkpt lat="45.45946" lon="0.91077">
        <ele>302.4</ele>
        <time>2026-07-06T08:12:15.000Z</time>
      </trkpt>
      <trkpt lat="45.45944" lon="0.91069">
        <ele>302.1</ele>
        <time>2026-07-06T08:12:25.000Z</time>
      </trkpt>
      <trkpt lat="45.45935" lon="0.91054">
        <ele>300.4</ele>
        <time>2026-07-06T08:12:35.000Z</time>
      </trkpt>
      <trkpt lat="45.4593" lon="0.91045">
        <ele>299.2</ele>
        <time>2026-07-06T08:12:45.000Z</time>
      </trkpt>
      <trkpt lat="45.45924" lon="0.91031">
        <ele>298.9</ele>
        <time>2026-07-06T08:12:55.000Z</time>
      </trkpt>
      <trkpt lat="45.45918" lon="0.91017">
        <ele>299.9</ele>
        <time>2026-07-06T08:13:05.000Z</time>
      </trkpt>
      <trkpt lat="45.45912" lon="0.91002">
        <ele>300.5</ele>
        <time>2026-07-06T08:13:15.000Z</time>
      </trkpt>
      <trkpt lat="45.45904" lon="0.90988">
        <ele>301.2</ele>
        <time>2026-07-06T08:13:25.000Z</time>
      </trkpt>
      <trkpt lat="45.459" lon="0.90976">
        <ele>300.9</ele>
        <time>2026-07-06T08:13:35.000Z</time>
      </trkpt>
      <trkpt lat="45.45896" lon="0.9096">
        <ele>297.5</ele>
        <time>2026-07-06T08:13:45.000Z</time>
      </trkpt>
      <trkpt lat="45.45891" lon="0.90947">
        <ele>298.2</ele>
        <time>2026-07-06T08:13:55.000Z</time>
      </trkpt>
      <trkpt lat="45.45886" lon="0.90935">
        <ele>297.1</ele>
        <time>2026-07-06T08:14:05.000Z</time>
      </trkpt>
      <trkpt lat="45.45878" lon="0.90921">
        <ele>296.5</ele>
        <time>2026-07-06T08:14:15.000Z</time>
      </trkpt>
      <trkpt lat="45.45874" lon="0.90909">
        <ele>296.2</ele>
        <time>2026-07-06T08:14:25.000Z</time>
      </trkpt>
      <trkpt lat="45.45868" lon="0.90895">
        <ele>296.4</ele>
        <time>2026-07-06T08:14:35.000Z</time>
      </trkpt>
      <trkpt lat="45.4586" lon="0.90883">
        <ele>296.9</ele>
        <time>2026-07-06T08:14:45.000Z</time>
      </trkpt>
      <trkpt lat="45.45855" lon="0.90872">
        <ele>295.4</ele>
        <time>2026-07-06T08:14:55.000Z</time>
      </trkpt>
      <trkpt lat="45.45849" lon="0.90859">
        <ele>294.7</ele>
        <time>2026-07-06T08:15:05.000Z</time>
      </trkpt>
      <trkpt lat="45.45843" lon="0.90846">
        <ele>293.8</ele>
        <time>2026-07-06T08:15:15.000Z</time>
      </trkpt>
      <trkpt lat="45.45838" lon="0.9083">
        <ele>293.1</ele>
        <time>2026-07-06T08:15:25.000Z</time>
      </trkpt>
      <trkpt lat="45.45833" lon="0.9082">
        <ele>292.8</ele>
        <time>2026-07-06T08:15:35.000Z</time>
      </trkpt>
      <trkpt lat="45.45828" lon="0.90805">
        <ele>292.8</ele>
        <time>2026-07-06T08:15:45.000Z</time>
      </trkpt>
      <trkpt lat="45.45822" lon="0.90793">
        <ele>294.3</ele>
        <time>2026-07-06T08:15:55.000Z</time>
      </trkpt>
      <trkpt lat="45.45816" lon="0.90782">
        <ele>294.9</ele>
        <time>2026-07-06T08:16:05.000Z</time>
      </trkpt>
      <trkpt lat="45.4581" lon="0.90768">
        <ele>295.5</ele>
        <time>2026-07-06T08:16:15.000Z</time>
      </trkpt>
      <trkpt lat="45.45805" lon="0.90757">
        <ele>294.9</ele>
        <time>2026-07-06T08:16:25.000Z</time>
      </trkpt>
      <trkpt lat="45.45799" lon="0.90746">
        <ele>295</ele>
        <time>2026-07-06T08:16:35.000Z</time>
      </trkpt>
      <trkpt lat="45.45793" lon="0.90736">
        <ele>292.4</ele>
        <time>2026-07-06T08:16:45.000Z</time>
      </trkpt>
      <trkpt lat="45.45789" lon="0.90729">
        <ele>293</ele>
        <time>2026-07-06T08:16:55.000Z</time>
      </trkpt>
      <trkpt lat="45.4578" lon="0.90711">
        <ele>293.8</ele>
        <time>2026-07-06T08:17:05.000Z</time>
      </trkpt>
      <trkpt lat="45.45774" lon="0.90695">
        <ele>294.5</ele>
        <time>2026-07-06T08:17:15.000Z</time>
      </trkpt>
      <trkpt lat="45.45768" lon="0.90688">
        <ele>294.9</ele>
        <time>2026-07-06T08:17:25.000Z</time>
      </trkpt>
      <trkpt lat="45.45766" lon="0.90684">
        <ele>293.9</ele>
        <time>2026-07-06T08:17:35.000Z</time>
      </trkpt>
      <trkpt lat="45.45756" lon="0.90671">
        <ele>294.7</ele>
        <time>2026-07-06T08:17:45.000Z</time>
      </trkpt>
      <trkpt lat="45.45749" lon="0.90658">
        <ele>295.7</ele>
        <time>2026-07-06T08:17:55.000Z</time>
      </trkpt>
      <trkpt lat="45.45745" lon="0.90639">
        <ele>295.8</ele>
        <time>2026-07-06T08:18:05.000Z</time>
      </trkpt>
      <trkpt lat="45.45739" lon="0.90623">
        <ele>294.1</ele>
        <time>2026-07-06T08:18:15.000Z</time>
      </trkpt>
      <trkpt lat="45.45734" lon="0.90608">
        <ele>294.7</ele>
        <time>2026-07-06T08:18:25.000Z</time>
      </trkpt>
      <trkpt lat="45.45728" lon="0.90598">
        <ele>294.3</ele>
        <time>2026-07-06T08:18:35.000Z</time>
      </trkpt>
      <trkpt lat="45.45723" lon="0.90585">
        <ele>291.9</ele>
        <time>2026-07-06T08:18:45.000Z</time>
      </trkpt>
      <trkpt lat="45.45719" lon="0.9057">
        <ele>288.8</ele>
        <time>2026-07-06T08:18:55.000Z</time>
      </trkpt>
      <trkpt lat="45.45715" lon="0.90561">
        <ele>287.4</ele>
        <time>2026-07-06T08:19:05.000Z</time>
      </trkpt>
      <trkpt lat="45.45706" lon="0.90549">
        <ele>289</ele>
        <time>2026-07-06T08:19:15.000Z</time>
      </trkpt>
      <trkpt lat="45.45704" lon="0.90542">
        <ele>290.2</ele>
        <time>2026-07-06T08:19:25.000Z</time>
      </trkpt>
      <trkpt lat="45.45704" lon="0.90542">
        <ele>290.2</ele>
        <time>2026-07-06T08:19:35.000Z</time>
      </trkpt>
      <trkpt lat="45.45704" lon="0.90542">
        <ele>290.2</ele>
        <time>2026-07-06T08:19:45.000Z</time>
      </trkpt>
      <trkpt lat="45.45695" lon="0.90529">
        <ele>294.2</ele>
        <time>2026-07-06T08:19:55.000Z</time>
      </trkpt>
      <trkpt lat="45.45696" lon="0.90525">
        <ele>294.3</ele>
        <time>2026-07-06T08:20:05.000Z</time>
      </trkpt>
      <trkpt lat="45.45696" lon="0.90525">
        <ele>294.3</ele>
        <time>2026-07-06T08:20:15.000Z</time>
      </trkpt>
      <trkpt lat="45.45696" lon="0.90525">
        <ele>294.3</ele>
        <time>2026-07-06T08:20:25.000Z</time>
      </trkpt>
      <trkpt lat="45.45696" lon="0.90525">
        <ele>294.3</ele>
        <time>2026-07-06T08:20:35.000Z</time>
      </trkpt>
      <trkpt lat="45.45696" lon="0.90525">
        <ele>294.3</ele>
        <time>2026-07-06T08:20:45.000Z</time>
      </trkpt>
      <trkpt lat="45.457" lon="0.9051">
        <ele>298.4</ele>
        <time>2026-07-06T08:20:55.000Z</time>
      </trkpt>
      <trkpt lat="45.45693" lon="0.90499">
        <ele>297.2</ele>
        <time>2026-07-06T08:21:05.000Z</time>
      </trkpt>
      <trkpt lat="45.4569" lon="0.90486">
        <ele>296.8</ele>
        <time>2026-07-06T08:21:15.000Z</time>
      </trkpt>
      <trkpt lat="45.45688" lon="0.90474">
        <ele>298.9</ele>
        <time>2026-07-06T08:21:25.000Z</time>
      </trkpt>
      <trkpt lat="45.45688" lon="0.90471">
        <ele>297.4</ele>
        <time>2026-07-06T08:21:35.000Z</time>
      </trkpt>
      <trkpt lat="45.45688" lon="0.90471">
        <ele>297.4</ele>
        <time>2026-07-06T08:21:45.000Z</time>
      </trkpt>
      <trkpt lat="45.45688" lon="0.90471">
        <ele>297.4</ele>
        <time>2026-07-06T08:21:55.000Z</time>
      </trkpt>
      <trkpt lat="45.45689" lon="0.90485">
        <ele>296.3</ele>
        <time>2026-07-06T08:22:05.000Z</time>
      </trkpt>
      <trkpt lat="45.45688" lon="0.90485">
        <ele>296.4</ele>
        <time>2026-07-06T08:22:15.000Z</time>
      </trkpt>
      <trkpt lat="45.45688" lon="0.90485">
        <ele>296.4</ele>
        <time>2026-07-06T08:22:25.000Z</time>
      </trkpt>
      <trkpt lat="45.45688" lon="0.90485">
        <ele>296.4</ele>
        <time>2026-07-06T08:22:35.000Z</time>
      </trkpt>
      <trkpt lat="45.45688" lon="0.90485">
        <ele>296.4</ele>
        <time>2026-07-06T08:22:45.000Z</time>
      </trkpt>
      <trkpt lat="45.45688" lon="0.90485">
        <ele>296.4</ele>
        <time>2026-07-06T08:22:55.000Z</time>
      </trkpt>
      <trkpt lat="45.45688" lon="0.90485">
        <ele>299.6</ele>
        <time>2026-07-06T08:23:05.000Z</time>
      </trkpt>
      <trkpt lat="45.45688" lon="0.90485">
        <ele>299.6</ele>
        <time>2026-07-06T08:23:15.000Z</time>
      </trkpt>
      <trkpt lat="45.45688" lon="0.90485">
        <ele>299.6</ele>
        <time>2026-07-06T08:23:25.000Z</time>
      </trkpt>
      <trkpt lat="45.45688" lon="0.90485">
        <ele>299.6</ele>
        <time>2026-07-06T08:23:35.000Z</time>
      </trkpt>
      <trkpt lat="45.45688" lon="0.90485">
        <ele>299.6</ele>
        <time>2026-07-06T08:23:45.000Z</time>
      </trkpt>
      <trkpt lat="45.45688" lon="0.90485">
        <ele>299.6</ele>
        <time>2026-07-06T08:23:55.000Z</time>
      </trkpt>
      <trkpt lat="45.45688" lon="0.90485">
        <ele>299.6</ele>
        <time>2026-07-06T08:24:05.000Z</time>
      </trkpt>
      <trkpt lat="45.45688" lon="0.90485">
        <ele>299.6</ele>
        <time>2026-07-06T08:24:15.000Z</time>
      </trkpt>
      <trkpt lat="45.45697" lon="0.90488">
        <ele>298.5</ele>
        <time>2026-07-06T08:24:25.000Z</time>
      </trkpt>
      <trkpt lat="45.45698" lon="0.90491">
        <ele>299.2</ele>
        <time>2026-07-06T08:24:35.000Z</time>
      </trkpt>
      <trkpt lat="45.45702" lon="0.90508">
        <ele>296</ele>
        <time>2026-07-06T08:24:45.000Z</time>
      </trkpt>
      <trkpt lat="45.45702" lon="0.90508">
        <ele>296</ele>
        <time>2026-07-06T08:24:55.000Z</time>
      </trkpt>
      <trkpt lat="45.45717" lon="0.90502">
        <ele>296.1</ele>
        <time>2026-07-06T08:25:05.000Z</time>
      </trkpt>
      <trkpt lat="45.45726" lon="0.90497">
        <ele>296.5</ele>
        <time>2026-07-06T08:25:15.000Z</time>
      </trkpt>
      <trkpt lat="45.4574" lon="0.90498">
        <ele>293.7</ele>
        <time>2026-07-06T08:25:25.000Z</time>
      </trkpt>
      <trkpt lat="45.45749" lon="0.90503">
        <ele>291</ele>
        <time>2026-07-06T08:25:35.000Z</time>
      </trkpt>
      <trkpt lat="45.45762" lon="0.90511">
        <ele>289</ele>
        <time>2026-07-06T08:25:45.000Z</time>
      </trkpt>
      <trkpt lat="45.45771" lon="0.9052">
        <ele>291.4</ele>
        <time>2026-07-06T08:25:55.000Z</time>
      </trkpt>
      <trkpt lat="45.45779" lon="0.90528">
        <ele>293.1</ele>
        <time>2026-07-06T08:26:05.000Z</time>
      </trkpt>
      <trkpt lat="45.45789" lon="0.90537">
        <ele>295</ele>
        <time>2026-07-06T08:26:15.000Z</time>
      </trkpt>
      <trkpt lat="45.45797" lon="0.90542">
        <ele>294.5</ele>
        <time>2026-07-06T08:26:25.000Z</time>
      </trkpt>
      <trkpt lat="45.45797" lon="0.90546">
        <ele>294.4</ele>
        <time>2026-07-06T08:26:35.000Z</time>
      </trkpt>
      <trkpt lat="45.45791" lon="0.90538">
        <ele>293.1</ele>
        <time>2026-07-06T08:26:45.000Z</time>
      </trkpt>
      <trkpt lat="45.45787" lon="0.90535">
        <ele>293.1</ele>
        <time>2026-07-06T08:26:55.000Z</time>
      </trkpt>
      <trkpt lat="45.45779" lon="0.90532">
        <ele>291.8</ele>
        <time>2026-07-06T08:27:05.000Z</time>
      </trkpt>
      <trkpt lat="45.4577" lon="0.90524">
        <ele>294.3</ele>
        <time>2026-07-06T08:27:15.000Z</time>
      </trkpt>
      <trkpt lat="45.4576" lon="0.90515">
        <ele>292.4</ele>
        <time>2026-07-06T08:27:25.000Z</time>
      </trkpt>
      <trkpt lat="45.45751" lon="0.90506">
        <ele>291.3</ele>
        <time>2026-07-06T08:27:35.000Z</time>
      </trkpt>
      <trkpt lat="45.45737" lon="0.90502">
        <ele>291.7</ele>
        <time>2026-07-06T08:27:45.000Z</time>
      </trkpt>
      <trkpt lat="45.45724" lon="0.90504">
        <ele>290.7</ele>
        <time>2026-07-06T08:27:55.000Z</time>
      </trkpt>
      <trkpt lat="45.45715" lon="0.90507">
        <ele>290.5</ele>
        <time>2026-07-06T08:28:05.000Z</time>
      </trkpt>
      <trkpt lat="45.45706" lon="0.90511">
        <ele>291.6</ele>
        <time>2026-07-06T08:28:15.000Z</time>
      </trkpt>
      <trkpt lat="45.45703" lon="0.9052">
        <ele>292.5</ele>
        <time>2026-07-06T08:28:25.000Z</time>
      </trkpt>
      <trkpt lat="45.45708" lon="0.90528">
        <ele>293.2</ele>
        <time>2026-07-06T08:28:35.000Z</time>
      </trkpt>
      <trkpt lat="45.45715" lon="0.90546">
        <ele>292.3</ele>
        <time>2026-07-06T08:28:45.000Z</time>
      </trkpt>
      <trkpt lat="45.45717" lon="0.90558">
        <ele>291.7</ele>
        <time>2026-07-06T08:28:55.000Z</time>
      </trkpt>
      <trkpt lat="45.45724" lon="0.90576">
        <ele>292.3</ele>
        <time>2026-07-06T08:29:05.000Z</time>
      </trkpt>
      <trkpt lat="45.4573" lon="0.90591">
        <ele>292.4</ele>
        <time>2026-07-06T08:29:15.000Z</time>
      </trkpt>
      <trkpt lat="45.45737" lon="0.90602">
        <ele>292.8</ele>
        <time>2026-07-06T08:29:25.000Z</time>
      </trkpt>
      <trkpt lat="45.45742" lon="0.90613">
        <ele>293.8</ele>
        <time>2026-07-06T08:29:35.000Z</time>
      </trkpt>
      <trkpt lat="45.45744" lon="0.90618">
        <ele>294.2</ele>
        <time>2026-07-06T08:29:45.000Z</time>
      </trkpt>
      <trkpt lat="45.45744" lon="0.90618">
        <ele>294.2</ele>
        <time>2026-07-06T08:29:55.000Z</time>
      </trkpt>
      <trkpt lat="45.45744" lon="0.90618">
        <ele>294.2</ele>
        <time>2026-07-06T08:30:05.000Z</time>
      </trkpt>
      <trkpt lat="45.45746" lon="0.90617">
        <ele>295.3</ele>
        <time>2026-07-06T08:30:15.000Z</time>
      </trkpt>
      <trkpt lat="45.45748" lon="0.90614">
        <ele>294.9</ele>
        <time>2026-07-06T08:30:25.000Z</time>
      </trkpt>
      <trkpt lat="45.45748" lon="0.90614">
        <ele>294.9</ele>
        <time>2026-07-06T08:30:35.000Z</time>
      </trkpt>
      <trkpt lat="45.45748" lon="0.90614">
        <ele>294.9</ele>
        <time>2026-07-06T08:30:45.000Z</time>
      </trkpt>
      <trkpt lat="45.45748" lon="0.90627">
        <ele>296.8</ele>
        <time>2026-07-06T08:30:55.000Z</time>
      </trkpt>
      <trkpt lat="45.4575" lon="0.90629">
        <ele>297</ele>
        <time>2026-07-06T08:31:05.000Z</time>
      </trkpt>
      <trkpt lat="45.4575" lon="0.90629">
        <ele>297</ele>
        <time>2026-07-06T08:31:15.000Z</time>
      </trkpt>
      <trkpt lat="45.4575" lon="0.90629">
        <ele>297</ele>
        <time>2026-07-06T08:31:25.000Z</time>
      </trkpt>
      <trkpt lat="45.4575" lon="0.90629">
        <ele>297</ele>
        <time>2026-07-06T08:31:35.000Z</time>
      </trkpt>
      <trkpt lat="45.4575" lon="0.90629">
        <ele>297</ele>
        <time>2026-07-06T08:31:45.000Z</time>
      </trkpt>
      <trkpt lat="45.4575" lon="0.90629">
        <ele>297</ele>
        <time>2026-07-06T08:31:55.000Z</time>
      </trkpt>
      <trkpt lat="45.45754" lon="0.90644">
        <ele>299.3</ele>
        <time>2026-07-06T08:32:05.000Z</time>
      </trkpt>
      <trkpt lat="45.45758" lon="0.90651">
        <ele>298.5</ele>
        <time>2026-07-06T08:32:15.000Z</time>
      </trkpt>
      <trkpt lat="45.45762" lon="0.90666">
        <ele>296.1</ele>
        <time>2026-07-06T08:32:25.000Z</time>
      </trkpt>
      <trkpt lat="45.45767" lon="0.90676">
        <ele>293.9</ele>
        <time>2026-07-06T08:32:35.000Z</time>
      </trkpt>
      <trkpt lat="45.45773" lon="0.90689">
        <ele>290.1</ele>
        <time>2026-07-06T08:32:45.000Z</time>
      </trkpt>
      <trkpt lat="45.45776" lon="0.90697">
        <ele>288.6</ele>
        <time>2026-07-06T08:32:55.000Z</time>
      </trkpt>
      <trkpt lat="45.45783" lon="0.90714">
        <ele>289.8</ele>
        <time>2026-07-06T08:33:05.000Z</time>
      </trkpt>
      <trkpt lat="45.45789" lon="0.90727">
        <ele>289.8</ele>
        <time>2026-07-06T08:33:15.000Z</time>
      </trkpt>
      <trkpt lat="45.45794" lon="0.90739">
        <ele>290.7</ele>
        <time>2026-07-06T08:33:25.000Z</time>
      </trkpt>
      <trkpt lat="45.458" lon="0.90752">
        <ele>290</ele>
        <time>2026-07-06T08:33:35.000Z</time>
      </trkpt>
      <trkpt lat="45.45805" lon="0.90763">
        <ele>291.4</ele>
        <time>2026-07-06T08:33:45.000Z</time>
      </trkpt>
      <trkpt lat="45.45812" lon="0.90778">
        <ele>291.9</ele>
        <time>2026-07-06T08:33:55.000Z</time>
      </trkpt>
      <trkpt lat="45.45816" lon="0.90789">
        <ele>292.8</ele>
        <time>2026-07-06T08:34:05.000Z</time>
      </trkpt>
      <trkpt lat="45.45819" lon="0.90796">
        <ele>293</ele>
        <time>2026-07-06T08:34:15.000Z</time>
      </trkpt>
      <trkpt lat="45.45827" lon="0.9081">
        <ele>293.2</ele>
        <time>2026-07-06T08:34:25.000Z</time>
      </trkpt>
      <trkpt lat="45.45832" lon="0.90823">
        <ele>293</ele>
        <time>2026-07-06T08:34:35.000Z</time>
      </trkpt>
      <trkpt lat="45.45834" lon="0.90833">
        <ele>291.9</ele>
        <time>2026-07-06T08:34:45.000Z</time>
      </trkpt>
      <trkpt lat="45.45843" lon="0.90847">
        <ele>293.5</ele>
        <time>2026-07-06T08:34:55.000Z</time>
      </trkpt>
      <trkpt lat="45.45847" lon="0.90855">
        <ele>294.1</ele>
        <time>2026-07-06T08:35:05.000Z</time>
      </trkpt>
      <trkpt lat="45.45855" lon="0.90873">
        <ele>294.7</ele>
        <time>2026-07-06T08:35:15.000Z</time>
      </trkpt>
      <trkpt lat="45.45861" lon="0.90885">
        <ele>297</ele>
        <time>2026-07-06T08:35:25.000Z</time>
      </trkpt>
      <trkpt lat="45.45868" lon="0.90897">
        <ele>298.7</ele>
        <time>2026-07-06T08:35:35.000Z</time>
      </trkpt>
      <trkpt lat="45.45873" lon="0.90911">
        <ele>299.5</ele>
        <time>2026-07-06T08:35:45.000Z</time>
      </trkpt>
      <trkpt lat="45.45879" lon="0.90924">
        <ele>299.3</ele>
        <time>2026-07-06T08:35:55.000Z</time>
      </trkpt>
      <trkpt lat="45.45883" lon="0.90933">
        <ele>299.4</ele>
        <time>2026-07-06T08:36:05.000Z</time>
      </trkpt>
      <trkpt lat="45.4589" lon="0.90952">
        <ele>300</ele>
        <time>2026-07-06T08:36:15.000Z</time>
      </trkpt>
      <trkpt lat="45.45895" lon="0.9097">
        <ele>300.9</ele>
        <time>2026-07-06T08:36:25.000Z</time>
      </trkpt>
      <trkpt lat="45.45902" lon="0.90982">
        <ele>302.4</ele>
        <time>2026-07-06T08:36:35.000Z</time>
      </trkpt>
      <trkpt lat="45.45908" lon="0.90994">
        <ele>303.3</ele>
        <time>2026-07-06T08:36:45.000Z</time>
      </trkpt>
      <trkpt lat="45.45915" lon="0.91008">
        <ele>303.3</ele>
        <time>2026-07-06T08:36:55.000Z</time>
      </trkpt>
      <trkpt lat="45.45921" lon="0.91022">
        <ele>302.7</ele>
        <time>2026-07-06T08:37:05.000Z</time>
      </trkpt>
      <trkpt lat="45.45927" lon="0.91037">
        <ele>303</ele>
        <time>2026-07-06T08:37:15.000Z</time>
      </trkpt>
      <trkpt lat="45.45931" lon="0.91048">
        <ele>303.4</ele>
        <time>2026-07-06T08:37:25.000Z</time>
      </trkpt>
      <trkpt lat="45.45938" lon="0.91062">
        <ele>303.6</ele>
        <time>2026-07-06T08:37:35.000Z</time>
      </trkpt>
      <trkpt lat="45.45946" lon="0.91075">
        <ele>303.1</ele>
        <time>2026-07-06T08:37:45.000Z</time>
      </trkpt>
      <trkpt lat="45.45954" lon="0.91087">
        <ele>302.3</ele>
        <time>2026-07-06T08:37:55.000Z</time>
      </trkpt>
      <trkpt lat="45.45961" lon="0.91101">
        <ele>302.7</ele>
        <time>2026-07-06T08:38:05.000Z</time>
      </trkpt>
      <trkpt lat="45.4597" lon="0.91113">
        <ele>302.9</ele>
        <time>2026-07-06T08:38:15.000Z</time>
      </trkpt>
      <trkpt lat="45.45978" lon="0.91129">
        <ele>303</ele>
        <time>2026-07-06T08:38:25.000Z</time>
      </trkpt>
      <trkpt lat="45.45985" lon="0.91136">
        <ele>303.9</ele>
        <time>2026-07-06T08:38:35.000Z</time>
      </trkpt>
      <trkpt lat="45.45995" lon="0.91149">
        <ele>304.8</ele>
        <time>2026-07-06T08:38:45.000Z</time>
      </trkpt>
      <trkpt lat="45.46004" lon="0.91163">
        <ele>304.1</ele>
        <time>2026-07-06T08:38:55.000Z</time>
      </trkpt>
      <trkpt lat="45.46008" lon="0.91177">
        <ele>303.9</ele>
        <time>2026-07-06T08:39:05.000Z</time>
      </trkpt>
      <trkpt lat="45.46015" lon="0.91188">
        <ele>304.7</ele>
        <time>2026-07-06T08:39:15.000Z</time>
      </trkpt>
      <trkpt lat="45.4602" lon="0.91204">
        <ele>305.2</ele>
        <time>2026-07-06T08:39:25.000Z</time>
      </trkpt>
      <trkpt lat="45.46023" lon="0.9122">
        <ele>305.5</ele>
        <time>2026-07-06T08:39:35.000Z</time>
      </trkpt>
      <trkpt lat="45.46027" lon="0.91233">
        <ele>306</ele>
        <time>2026-07-06T08:39:45.000Z</time>
      </trkpt>
      <trkpt lat="45.46025" lon="0.91249">
        <ele>307.1</ele>
        <time>2026-07-06T08:39:55.000Z</time>
      </trkpt>
      <trkpt lat="45.46022" lon="0.9126">
        <ele>307.4</ele>
        <time>2026-07-06T08:40:05.000Z</time>
      </trkpt>
      <trkpt lat="45.46022" lon="0.91272">
        <ele>305.7</ele>
        <time>2026-07-06T08:40:15.000Z</time>
      </trkpt>
      <trkpt lat="45.46016" lon="0.91288">
        <ele>304.5</ele>
        <time>2026-07-06T08:40:25.000Z</time>
      </trkpt>
      <trkpt lat="45.4601" lon="0.91303">
        <ele>303.4</ele>
        <time>2026-07-06T08:40:35.000Z</time>
      </trkpt>
      <trkpt lat="45.46004" lon="0.91317">
        <ele>302.6</ele>
        <time>2026-07-06T08:40:45.000Z</time>
      </trkpt>
      <trkpt lat="45.46001" lon="0.91331">
        <ele>302.2</ele>
        <time>2026-07-06T08:40:55.000Z</time>
      </trkpt>
      <trkpt lat="45.45995" lon="0.91345">
        <ele>301.3</ele>
        <time>2026-07-06T08:41:05.000Z</time>
      </trkpt>
      <trkpt lat="45.45988" lon="0.91358">
        <ele>299.9</ele>
        <time>2026-07-06T08:41:15.000Z</time>
      </trkpt>
      <trkpt lat="45.45982" lon="0.91371">
        <ele>299</ele>
        <time>2026-07-06T08:41:25.000Z</time>
      </trkpt>
      <trkpt lat="45.45976" lon="0.91381">
        <ele>299.8</ele>
        <time>2026-07-06T08:41:35.000Z</time>
      </trkpt>
      <trkpt lat="45.45969" lon="0.91391">
        <ele>299.8</ele>
        <time>2026-07-06T08:41:45.000Z</time>
      </trkpt>
      <trkpt lat="45.45962" lon="0.91402">
        <ele>299.8</ele>
        <time>2026-07-06T08:41:55.000Z</time>
      </trkpt>
      <trkpt lat="45.45953" lon="0.9141">
        <ele>300</ele>
        <time>2026-07-06T08:42:05.000Z</time>
      </trkpt>
      <trkpt lat="45.45944" lon="0.91417">
        <ele>300.6</ele>
        <time>2026-07-06T08:42:15.000Z</time>
      </trkpt>
      <trkpt lat="45.45933" lon="0.91423">
        <ele>301.5</ele>
        <time>2026-07-06T08:42:25.000Z</time>
      </trkpt>
      <trkpt lat="45.45923" lon="0.91429">
        <ele>301</ele>
        <time>2026-07-06T08:42:35.000Z</time>
      </trkpt>
      <trkpt lat="45.45912" lon="0.91432">
        <ele>298.9</ele>
        <time>2026-07-06T08:42:45.000Z</time>
      </trkpt>
      <trkpt lat="45.45903" lon="0.91436">
        <ele>297.9</ele>
        <time>2026-07-06T08:42:55.000Z</time>
      </trkpt>
      <trkpt lat="45.45891" lon="0.91436">
        <ele>298.2</ele>
        <time>2026-07-06T08:43:05.000Z</time>
      </trkpt>
      <trkpt lat="45.4588" lon="0.91436">
        <ele>299.8</ele>
        <time>2026-07-06T08:43:15.000Z</time>
      </trkpt>
      <trkpt lat="45.45871" lon="0.91437">
        <ele>300.8</ele>
        <time>2026-07-06T08:43:25.000Z</time>
      </trkpt>
      <trkpt lat="45.45862" lon="0.91443">
        <ele>299.8</ele>
        <time>2026-07-06T08:43:35.000Z</time>
      </trkpt>
      <trkpt lat="45.45855" lon="0.91444">
        <ele>299.5</ele>
        <time>2026-07-06T08:43:45.000Z</time>
      </trkpt>
      <trkpt lat="45.45855" lon="0.91444">
        <ele>299.5</ele>
        <time>2026-07-06T08:43:55.000Z</time>
      </trkpt>
      <trkpt lat="45.4584" lon="0.91451">
        <ele>299.2</ele>
        <time>2026-07-06T08:44:05.000Z</time>
      </trkpt>
      <trkpt lat="45.4583" lon="0.91455">
        <ele>299.8</ele>
        <time>2026-07-06T08:44:15.000Z</time>
      </trkpt>
      <trkpt lat="45.45821" lon="0.91463">
        <ele>299.2</ele>
        <time>2026-07-06T08:44:25.000Z</time>
      </trkpt>
      <trkpt lat="45.45819" lon="0.91476">
        <ele>298.4</ele>
        <time>2026-07-06T08:44:35.000Z</time>
      </trkpt>
      <trkpt lat="45.45815" lon="0.91486">
        <ele>296.8</ele>
        <time>2026-07-06T08:44:45.000Z</time>
      </trkpt>
      <trkpt lat="45.45809" lon="0.91504">
        <ele>294.8</ele>
        <time>2026-07-06T08:44:55.000Z</time>
      </trkpt>
      <trkpt lat="45.45809" lon="0.91521">
        <ele>291.8</ele>
        <time>2026-07-06T08:45:05.000Z</time>
      </trkpt>
      <trkpt lat="45.45811" lon="0.91537">
        <ele>292.5</ele>
        <time>2026-07-06T08:45:15.000Z</time>
      </trkpt>
      <trkpt lat="45.4581" lon="0.91553">
        <ele>292.6</ele>
        <time>2026-07-06T08:45:25.000Z</time>
      </trkpt>
      <trkpt lat="45.4581" lon="0.91568">
        <ele>291.5</ele>
        <time>2026-07-06T08:45:35.000Z</time>
      </trkpt>
      <trkpt lat="45.45807" lon="0.91583">
        <ele>289.8</ele>
        <time>2026-07-06T08:45:45.000Z</time>
      </trkpt>
      <trkpt lat="45.45806" lon="0.91597">
        <ele>288.1</ele>
        <time>2026-07-06T08:45:55.000Z</time>
      </trkpt>
      <trkpt lat="45.45806" lon="0.9161">
        <ele>287.2</ele>
        <time>2026-07-06T08:46:05.000Z</time>
      </trkpt>
      <trkpt lat="45.4581" lon="0.91624">
        <ele>287</ele>
        <time>2026-07-06T08:46:15.000Z</time>
      </trkpt>
      <trkpt lat="45.45811" lon="0.91636">
        <ele>287</ele>
        <time>2026-07-06T08:46:25.000Z</time>
      </trkpt>
      <trkpt lat="45.45815" lon="0.91651">
        <ele>284.7</ele>
        <time>2026-07-06T08:46:35.000Z</time>
      </trkpt>
      <trkpt lat="45.45815" lon="0.91661">
        <ele>285.3</ele>
        <time>2026-07-06T08:46:45.000Z</time>
      </trkpt>
      <trkpt lat="45.45815" lon="0.91661">
        <ele>285.3</ele>
        <time>2026-07-06T08:46:55.000Z</time>
      </trkpt>
      <trkpt lat="45.4582" lon="0.91673">
        <ele>286.3</ele>
        <time>2026-07-06T08:47:05.000Z</time>
      </trkpt>
      <trkpt lat="45.4582" lon="0.91674">
        <ele>286.2</ele>
        <time>2026-07-06T08:47:15.000Z</time>
      </trkpt>
      <trkpt lat="45.45825" lon="0.91682">
        <ele>286.9</ele>
        <time>2026-07-06T08:47:25.000Z</time>
      </trkpt>
      <trkpt lat="45.45827" lon="0.91689">
        <ele>286.7</ele>
        <time>2026-07-06T08:47:35.000Z</time>
      </trkpt>
      <trkpt lat="45.45827" lon="0.91689">
        <ele>286.7</ele>
        <time>2026-07-06T08:47:45.000Z</time>
      </trkpt>
      <trkpt lat="45.45836" lon="0.91708">
        <ele>285.7</ele>
        <time>2026-07-06T08:47:55.000Z</time>
      </trkpt>
      <trkpt lat="45.45839" lon="0.91722">
        <ele>285.9</ele>
        <time>2026-07-06T08:48:05.000Z</time>
      </trkpt>
      <trkpt lat="45.45843" lon="0.91736">
        <ele>284.2</ele>
        <time>2026-07-06T08:48:15.000Z</time>
      </trkpt>
      <trkpt lat="45.45843" lon="0.91751">
        <ele>284.1</ele>
        <time>2026-07-06T08:48:25.000Z</time>
      </trkpt>
      <trkpt lat="45.45844" lon="0.91766">
        <ele>282.2</ele>
        <time>2026-07-06T08:48:35.000Z</time>
      </trkpt>
      <trkpt lat="45.45843" lon="0.91779">
        <ele>281.8</ele>
        <time>2026-07-06T08:48:45.000Z</time>
      </trkpt>
      <trkpt lat="45.4584" lon="0.91794">
        <ele>280.9</ele>
        <time>2026-07-06T08:48:55.000Z</time>
      </trkpt>
      <trkpt lat="45.45839" lon="0.91807">
        <ele>278.6</ele>
        <time>2026-07-06T08:49:05.000Z</time>
      </trkpt>
      <trkpt lat="45.45837" lon="0.91822">
        <ele>277</ele>
        <time>2026-07-06T08:49:15.000Z</time>
      </trkpt>
      <trkpt lat="45.45837" lon="0.91837">
        <ele>276</ele>
        <time>2026-07-06T08:49:25.000Z</time>
      </trkpt>
      <trkpt lat="45.45836" lon="0.91853">
        <ele>274.7</ele>
        <time>2026-07-06T08:49:35.000Z</time>
      </trkpt>
      <trkpt lat="45.45831" lon="0.91862">
        <ele>274.3</ele>
        <time>2026-07-06T08:49:45.000Z</time>
      </trkpt>
      <trkpt lat="45.45831" lon="0.91862">
        <ele>274.3</ele>
        <time>2026-07-06T08:49:55.000Z</time>
      </trkpt>
      <trkpt lat="45.45832" lon="0.9189">
        <ele>274.6</ele>
        <time>2026-07-06T08:50:05.000Z</time>
      </trkpt>
      <trkpt lat="45.45833" lon="0.91905">
        <ele>275.2</ele>
        <time>2026-07-06T08:50:15.000Z</time>
      </trkpt>
      <trkpt lat="45.45834" lon="0.9192">
        <ele>274.9</ele>
        <time>2026-07-06T08:50:25.000Z</time>
      </trkpt>
      <trkpt lat="45.45834" lon="0.91921">
        <ele>275.2</ele>
        <time>2026-07-06T08:50:35.000Z</time>
      </trkpt>
      <trkpt lat="45.45834" lon="0.91921">
        <ele>275.2</ele>
        <time>2026-07-06T08:50:45.000Z</time>
      </trkpt>
      <trkpt lat="45.45835" lon="0.91937">
        <ele>276.7</ele>
        <time>2026-07-06T08:50:55.000Z</time>
      </trkpt>
      <trkpt lat="45.45844" lon="0.91957">
        <ele>274.2</ele>
        <time>2026-07-06T08:51:05.000Z</time>
      </trkpt>
      <trkpt lat="45.45851" lon="0.91964">
        <ele>275</ele>
        <time>2026-07-06T08:51:15.000Z</time>
      </trkpt>
      <trkpt lat="45.4586" lon="0.91968">
        <ele>276.3</ele>
        <time>2026-07-06T08:51:25.000Z</time>
      </trkpt>
      <trkpt lat="45.45872" lon="0.91964">
        <ele>276</ele>
        <time>2026-07-06T08:51:35.000Z</time>
      </trkpt>
      <trkpt lat="45.45881" lon="0.91972">
        <ele>277.6</ele>
        <time>2026-07-06T08:51:45.000Z</time>
      </trkpt>
      <trkpt lat="45.45886" lon="0.91973">
        <ele>275.7</ele>
        <time>2026-07-06T08:51:55.000Z</time>
      </trkpt>
      <trkpt lat="45.45896" lon="0.91985">
        <ele>273</ele>
        <time>2026-07-06T08:52:05.000Z</time>
      </trkpt>
      <trkpt lat="45.459" lon="0.91999">
        <ele>272.2</ele>
        <time>2026-07-06T08:52:15.000Z</time>
      </trkpt>
      <trkpt lat="45.45903" lon="0.92014">
        <ele>269.1</ele>
        <time>2026-07-06T08:52:25.000Z</time>
      </trkpt>
      <trkpt lat="45.45911" lon="0.92033">
        <ele>267.9</ele>
        <time>2026-07-06T08:52:35.000Z</time>
      </trkpt>
      <trkpt lat="45.45911" lon="0.92048">
        <ele>269.3</ele>
        <time>2026-07-06T08:52:45.000Z</time>
      </trkpt>
      <trkpt lat="45.45915" lon="0.92064">
        <ele>269.7</ele>
        <time>2026-07-06T08:52:55.000Z</time>
      </trkpt>
      <trkpt lat="45.45917" lon="0.92075">
        <ele>270.3</ele>
        <time>2026-07-06T08:53:05.000Z</time>
      </trkpt>
      <trkpt lat="45.45917" lon="0.92075">
        <ele>270.3</ele>
        <time>2026-07-06T08:53:15.000Z</time>
      </trkpt>
      <trkpt lat="45.45928" lon="0.92085">
        <ele>274.8</ele>
        <time>2026-07-06T08:53:25.000Z</time>
      </trkpt>
      <trkpt lat="45.45939" lon="0.92091">
        <ele>276.8</ele>
        <time>2026-07-06T08:53:35.000Z</time>
      </trkpt>
      <trkpt lat="45.45943" lon="0.92094">
        <ele>277.4</ele>
        <time>2026-07-06T08:53:45.000Z</time>
      </trkpt>
      <trkpt lat="45.45959" lon="0.92108">
        <ele>279.9</ele>
        <time>2026-07-06T08:53:55.000Z</time>
      </trkpt>
      <trkpt lat="45.45971" lon="0.92115">
        <ele>281.2</ele>
        <time>2026-07-06T08:54:05.000Z</time>
      </trkpt>
      <trkpt lat="45.45976" lon="0.9212">
        <ele>282.8</ele>
        <time>2026-07-06T08:54:15.000Z</time>
      </trkpt>
      <trkpt lat="45.45984" lon="0.92129">
        <ele>285.3</ele>
        <time>2026-07-06T08:54:25.000Z</time>
      </trkpt>
      <trkpt lat="45.45991" lon="0.92139">
        <ele>285.3</ele>
        <time>2026-07-06T08:54:35.000Z</time>
      </trkpt>
      <trkpt lat="45.45997" lon="0.92152">
        <ele>284.6</ele>
        <time>2026-07-06T08:54:45.000Z</time>
      </trkpt>
      <trkpt lat="45.46006" lon="0.92168">
        <ele>281.7</ele>
        <time>2026-07-06T08:54:55.000Z</time>
      </trkpt>
      <trkpt lat="45.46007" lon="0.92178">
        <ele>282.1</ele>
        <time>2026-07-06T08:55:05.000Z</time>
      </trkpt>
      <trkpt lat="45.46007" lon="0.92186">
        <ele>284.1</ele>
        <time>2026-07-06T08:55:15.000Z</time>
      </trkpt>
      <trkpt lat="45.46011" lon="0.92197">
        <ele>285.1</ele>
        <time>2026-07-06T08:55:25.000Z</time>
      </trkpt>
      <trkpt lat="45.46011" lon="0.92197">
        <ele>285.1</ele>
        <time>2026-07-06T08:55:35.000Z</time>
      </trkpt>
      <trkpt lat="45.46019" lon="0.92231">
        <ele>286.5</ele>
        <time>2026-07-06T08:55:45.000Z</time>
      </trkpt>
      <trkpt lat="45.46018" lon="0.9225">
        <ele>285.4</ele>
        <time>2026-07-06T08:55:55.000Z</time>
      </trkpt>
      <trkpt lat="45.46022" lon="0.9227">
        <ele>284.9</ele>
        <time>2026-07-06T08:56:05.000Z</time>
      </trkpt>
      <trkpt lat="45.46024" lon="0.92284">
        <ele>286.5</ele>
        <time>2026-07-06T08:56:15.000Z</time>
      </trkpt>
      <trkpt lat="45.46023" lon="0.92299">
        <ele>286.3</ele>
        <time>2026-07-06T08:56:25.000Z</time>
      </trkpt>
      <trkpt lat="45.46023" lon="0.92315">
        <ele>286.6</ele>
        <time>2026-07-06T08:56:35.000Z</time>
      </trkpt>
      <trkpt lat="45.46023" lon="0.92317">
        <ele>286.3</ele>
        <time>2026-07-06T08:56:45.000Z</time>
      </trkpt>
      <trkpt lat="45.46027" lon="0.92345">
        <ele>287</ele>
        <time>2026-07-06T08:56:55.000Z</time>
      </trkpt>
      <trkpt lat="45.46032" lon="0.92363">
        <ele>286.3</ele>
        <time>2026-07-06T08:57:05.000Z</time>
      </trkpt>
      <trkpt lat="45.46034" lon="0.92377">
        <ele>289.6</ele>
        <time>2026-07-06T08:57:15.000Z</time>
      </trkpt>
      <trkpt lat="45.46038" lon="0.9239">
        <ele>291.4</ele>
        <time>2026-07-06T08:57:25.000Z</time>
      </trkpt>
      <trkpt lat="45.46039" lon="0.92406">
        <ele>292.3</ele>
        <time>2026-07-06T08:57:35.000Z</time>
      </trkpt>
      <trkpt lat="45.46043" lon="0.92427">
        <ele>293</ele>
        <time>2026-07-06T08:57:45.000Z</time>
      </trkpt>
      <trkpt lat="45.46044" lon="0.92436">
        <ele>293.9</ele>
        <time>2026-07-06T08:57:55.000Z</time>
      </trkpt>
      <trkpt lat="45.46045" lon="0.92453">
        <ele>296.3</ele>
        <time>2026-07-06T08:58:05.000Z</time>
      </trkpt>
      <trkpt lat="45.46047" lon="0.92475">
        <ele>295.8</ele>
        <time>2026-07-06T08:58:15.000Z</time>
      </trkpt>
      <trkpt lat="45.46049" lon="0.92483">
        <ele>296</ele>
        <time>2026-07-06T08:58:25.000Z</time>
      </trkpt>
      <trkpt lat="45.46048" lon="0.92512">
        <ele>296.7</ele>
        <time>2026-07-06T08:58:35.000Z</time>
      </trkpt>
      <trkpt lat="45.46045" lon="0.9253">
        <ele>297.6</ele>
        <time>2026-07-06T08:58:45.000Z</time>
      </trkpt>
      <trkpt lat="45.46042" lon="0.92544">
        <ele>298.9</ele>
        <time>2026-07-06T08:58:55.000Z</time>
      </trkpt>
      <trkpt lat="45.46036" lon="0.92563">
        <ele>300.6</ele>
        <time>2026-07-06T08:59:05.000Z</time>
      </trkpt>
      <trkpt lat="45.4603" lon="0.92578">
        <ele>302.2</ele>
        <time>2026-07-06T08:59:15.000Z</time>
      </trkpt>
      <trkpt lat="45.46029" lon="0.92584">
        <ele>304.2</ele>
        <time>2026-07-06T08:59:25.000Z</time>
      </trkpt>
      <trkpt lat="45.46019" lon="0.92591">
        <ele>302.6</ele>
        <time>2026-07-06T08:59:35.000Z</time>
      </trkpt>
      <trkpt lat="45.46009" lon="0.92596">
        <ele>303.6</ele>
        <time>2026-07-06T08:59:45.000Z</time>
      </trkpt>
      <trkpt lat="45.45998" lon="0.926">
        <ele>303.8</ele>
        <time>2026-07-06T08:59:55.000Z</time>
      </trkpt>
      <trkpt lat="45.45984" lon="0.92601">
        <ele>304.5</ele>
        <time>2026-07-06T09:00:05.000Z</time>
      </trkpt>
      <trkpt lat="45.45972" lon="0.926">
        <ele>304.6</ele>
        <time>2026-07-06T09:00:15.000Z</time>
      </trkpt>
      <trkpt lat="45.45957" lon="0.92602">
        <ele>305.5</ele>
        <time>2026-07-06T09:00:25.000Z</time>
      </trkpt>
      <trkpt lat="45.45946" lon="0.92601">
        <ele>306.2</ele>
        <time>2026-07-06T09:00:35.000Z</time>
      </trkpt>
      <trkpt lat="45.45931" lon="0.92603">
        <ele>309.7</ele>
        <time>2026-07-06T09:00:45.000Z</time>
      </trkpt>
      <trkpt lat="45.45924" lon="0.92606">
        <ele>309.2</ele>
        <time>2026-07-06T09:00:55.000Z</time>
      </trkpt>
      <trkpt lat="45.45912" lon="0.92607">
        <ele>307.8</ele>
        <time>2026-07-06T09:01:05.000Z</time>
      </trkpt>
      <trkpt lat="45.45901" lon="0.92611">
        <ele>309.7</ele>
        <time>2026-07-06T09:01:15.000Z</time>
      </trkpt>
      <trkpt lat="45.45892" lon="0.92621">
        <ele>311.9</ele>
        <time>2026-07-06T09:01:25.000Z</time>
      </trkpt>
      <trkpt lat="45.45881" lon="0.92624">
        <ele>311.3</ele>
        <time>2026-07-06T09:01:35.000Z</time>
      </trkpt>
      <trkpt lat="45.45876" lon="0.92638">
        <ele>311</ele>
        <time>2026-07-06T09:01:45.000Z</time>
      </trkpt>
      <trkpt lat="45.45877" lon="0.92653">
        <ele>310</ele>
        <time>2026-07-06T09:01:55.000Z</time>
      </trkpt>
      <trkpt lat="45.45875" lon="0.92671">
        <ele>309.7</ele>
        <time>2026-07-06T09:02:05.000Z</time>
      </trkpt>
      <trkpt lat="45.45875" lon="0.92691">
        <ele>308.4</ele>
        <time>2026-07-06T09:02:15.000Z</time>
      </trkpt>
      <trkpt lat="45.45867" lon="0.92711">
        <ele>307.6</ele>
        <time>2026-07-06T09:02:25.000Z</time>
      </trkpt>
      <trkpt lat="45.45861" lon="0.92726">
        <ele>307.7</ele>
        <time>2026-07-06T09:02:35.000Z</time>
      </trkpt>
      <trkpt lat="45.45853" lon="0.92745">
        <ele>307.9</ele>
        <time>2026-07-06T09:02:45.000Z</time>
      </trkpt>
      <trkpt lat="45.45842" lon="0.92759">
        <ele>308.1</ele>
        <time>2026-07-06T09:02:55.000Z</time>
      </trkpt>
      <trkpt lat="45.4583" lon="0.92769">
        <ele>309.9</ele>
        <time>2026-07-06T09:03:05.000Z</time>
      </trkpt>
      <trkpt lat="45.45818" lon="0.92779">
        <ele>311.8</ele>
        <time>2026-07-06T09:03:15.000Z</time>
      </trkpt>
      <trkpt lat="45.45803" lon="0.92785">
        <ele>313</ele>
        <time>2026-07-06T09:03:25.000Z</time>
      </trkpt>
      <trkpt lat="45.45792" lon="0.92793">
        <ele>315.2</ele>
        <time>2026-07-06T09:03:35.000Z</time>
      </trkpt>
      <trkpt lat="45.45777" lon="0.928">
        <ele>316.2</ele>
        <time>2026-07-06T09:03:45.000Z</time>
      </trkpt>
      <trkpt lat="45.45762" lon="0.92805">
        <ele>317.8</ele>
        <time>2026-07-06T09:03:55.000Z</time>
      </trkpt>
      <trkpt lat="45.45753" lon="0.92809">
        <ele>320.4</ele>
        <time>2026-07-06T09:04:05.000Z</time>
      </trkpt>
      <trkpt lat="45.45741" lon="0.92814">
        <ele>320.3</ele>
        <time>2026-07-06T09:04:15.000Z</time>
      </trkpt>
      <trkpt lat="45.45727" lon="0.92819">
        <ele>320.2</ele>
        <time>2026-07-06T09:04:25.000Z</time>
      </trkpt>
      <trkpt lat="45.45712" lon="0.92816">
        <ele>320.2</ele>
        <time>2026-07-06T09:04:35.000Z</time>
      </trkpt>
      <trkpt lat="45.45703" lon="0.92801">
        <ele>318.7</ele>
        <time>2026-07-06T09:04:45.000Z</time>
      </trkpt>
      <trkpt lat="45.457" lon="0.92782">
        <ele>317.7</ele>
        <time>2026-07-06T09:04:55.000Z</time>
      </trkpt>
      <trkpt lat="45.45701" lon="0.92774">
        <ele>317.7</ele>
        <time>2026-07-06T09:05:05.000Z</time>
      </trkpt>
      <trkpt lat="45.45701" lon="0.92774">
        <ele>317.7</ele>
        <time>2026-07-06T09:05:15.000Z</time>
      </trkpt>
      <trkpt lat="45.45715" lon="0.92779">
        <ele>313.9</ele>
        <time>2026-07-06T09:05:59.000Z</time>
      </trkpt>
    </trkseg>
  </trk>
</gpx>